createdAt,value
2023-02-19T00:01:25.287Z,11.02
2023-02-19T00:03:54.128Z,11.06
2023-02-19T00:06:22.177Z,11.05
2023-02-19T00:08:48.691Z,11.06
2023-02-19T00:11:23.914Z,11.04
2023-02-19T00:13:52.702Z,11.01
2023-02-19T00:16:28.284Z,11.03
2023-02-19T00:18:56.410Z,11.03
2023-02-19T00:21:24.416Z,11.01
2023-02-19T00:23:52.682Z,10.95
2023-02-19T00:26:19.221Z,11.01
2023-02-19T00:28:49.661Z,11.01
2023-02-19T00:31:20.604Z,11.02
2023-02-19T00:33:48.838Z,11.01
2023-02-19T00:36:15.878Z,11.01
2023-02-19T00:38:43.549Z,11.01
2023-02-19T00:41:11.997Z,11.01
2023-02-19T00:43:39.333Z,11.00
2023-02-19T00:46:05.873Z,11.00
2023-02-19T00:48:32.422Z,11.00
2023-02-19T00:50:59.848Z,10.98
2023-02-19T00:53:26.474Z,10.97
2023-02-19T00:55:52.914Z,10.95
2023-02-19T00:58:19.353Z,10.95
2023-02-19T01:00:45.837Z,10.94
2023-02-19T01:03:13.127Z,10.95
2023-02-19T01:05:41.035Z,10.94
2023-02-19T01:08:07.534Z,10.94
2023-02-19T01:10:34.004Z,10.92
2023-02-19T01:13:00.492Z,10.91
2023-02-19T01:15:27.004Z,10.90
2023-02-19T01:17:53.475Z,10.88
2023-02-19T01:20:19.970Z,10.87
2023-02-19T01:22:46.481Z,10.86
2023-02-19T01:25:12.949Z,10.83
2023-02-19T01:27:39.434Z,10.83
2023-02-19T01:30:06.320Z,10.80
2023-02-19T01:32:32.782Z,10.77
2023-02-19T01:34:59.285Z,10.79
2023-02-19T01:37:25.713Z,10.77
2023-02-19T01:39:52.321Z,10.77
2023-02-19T01:42:18.923Z,10.75
2023-02-19T01:44:45.376Z,10.73
2023-02-19T01:47:12.117Z,10.70
2023-02-19T01:49:50.609Z,10.66
2023-02-19T01:52:29.657Z,10.63
2023-02-19T01:54:56.992Z,10.59
2023-02-19T01:57:26.865Z,10.54
2023-02-19T01:59:57.438Z,10.50
2023-02-19T02:02:24.757Z,10.45
2023-02-19T02:04:52.067Z,10.40
2023-02-19T02:07:18.807Z,10.36
2023-02-19T02:09:45.420Z,10.32
2023-02-19T02:12:12.290Z,10.30
2023-02-19T02:14:43.512Z,10.25
2023-02-19T02:17:25.737Z,10.25
2023-02-19T02:20:10.484Z,10.23
2023-02-19T02:22:55.379Z,10.22
2023-02-19T02:25:43.949Z,10.21
2023-02-19T02:28:32.421Z,10.19
2023-02-19T02:31:13.851Z,10.18
2023-02-19T02:34:02.984Z,10.16
2023-02-19T02:36:37.841Z,10.14
2023-02-19T02:39:09.172Z,10.06
2023-02-19T02:41:45.543Z,10.09
2023-02-19T02:44:12.917Z,10.09
2023-02-19T02:46:44.780Z,10.07
2023-02-19T02:49:22.020Z,10.06
2023-02-19T02:51:53.268Z,10.07
2023-02-19T02:54:27.612Z,10.06
2023-02-19T02:56:56.234Z,10.06
2023-02-19T02:59:26.375Z,10.07
2023-02-19T03:02:02.291Z,10.05
2023-02-19T03:04:47.592Z,10.03
2023-02-19T03:07:14.494Z,10.02
2023-02-19T03:09:42.769Z,9.96
2023-02-19T03:12:19.077Z,9.99
2023-02-19T03:14:56.355Z,9.99
2023-02-19T03:17:33.477Z,10.00
2023-02-19T03:20:05.029Z,10.00
2023-02-19T03:22:37.704Z,10.00
2023-02-19T03:25:11.510Z,10.01
2023-02-19T03:27:40.957Z,10.01
2023-02-19T03:30:21.079Z,9.96
2023-02-19T03:32:59.813Z,9.96
2023-02-19T03:35:53.046Z,9.99
2023-02-19T03:38:22.466Z,10.01
2023-02-19T03:41:09.676Z,9.95
2023-02-19T03:44:02.540Z,10.01
2023-02-19T03:46:53.536Z,9.99
2023-02-19T03:49:34.878Z,10.02
2023-02-19T03:52:16.196Z,9.99
2023-02-19T03:55:13.725Z,9.99
2023-02-19T03:57:54.093Z,9.93
2023-02-19T04:00:24.830Z,9.87
2023-02-19T04:03:11.688Z,9.77
2023-02-19T04:05:45.510Z,9.71
2023-02-19T04:08:17.616Z,9.71
2023-02-19T04:10:51.765Z,9.68
2023-02-19T04:13:24.501Z,9.58
2023-02-19T04:15:54.190Z,9.59
2023-02-19T04:18:26.322Z,9.56
2023-02-19T04:20:53.238Z,9.59
2023-02-19T04:23:25.880Z,9.51
2023-02-19T04:25:56.625Z,9.50
2023-02-19T04:28:23.285Z,9.47
2023-02-19T04:30:49.803Z,9.45
2023-02-19T04:33:16.361Z,9.44
2023-02-19T04:35:42.832Z,9.42
2023-02-19T04:38:09.332Z,9.42
2023-02-19T04:40:35.918Z,9.43
2023-02-19T04:43:02.437Z,9.43
2023-02-19T04:45:28.917Z,9.43
2023-02-19T04:47:57.676Z,9.44
2023-02-19T04:50:24.259Z,9.44
2023-02-19T04:52:51.092Z,9.44
2023-02-19T04:55:17.722Z,9.43
2023-02-19T04:57:44.236Z,9.39
2023-02-19T05:00:11.310Z,9.39
2023-02-19T05:02:37.767Z,9.36
2023-02-19T05:05:04.358Z,9.35
2023-02-19T05:07:30.947Z,9.35
2023-02-19T05:09:57.373Z,9.34
2023-02-19T05:12:23.855Z,9.35
2023-02-19T05:14:50.304Z,9.37
2023-02-19T05:17:16.855Z,9.38
2023-02-19T05:19:43.375Z,9.38
2023-02-19T05:22:09.865Z,9.38
2023-02-19T05:24:36.368Z,9.37
2023-02-19T05:27:02.886Z,9.36
2023-02-19T05:29:30.907Z,9.33
2023-02-19T05:31:57.467Z,9.31
2023-02-19T05:34:23.984Z,9.29
2023-02-19T05:36:50.470Z,9.30
2023-02-19T05:39:17.023Z,9.27
2023-02-19T05:41:43.598Z,9.24
2023-02-19T05:44:11.218Z,9.20
2023-02-19T05:46:37.743Z,9.18
2023-02-19T05:49:04.214Z,9.15
2023-02-19T05:51:30.977Z,9.12
2023-02-19T05:53:57.587Z,9.07
2023-02-19T05:56:38.920Z,9.01
2023-02-19T05:59:16.883Z,8.94
2023-02-19T06:01:43.399Z,8.93
2023-02-19T06:04:13.654Z,8.88
2023-02-19T06:06:41.406Z,8.84
2023-02-19T06:09:08.425Z,8.78
2023-02-19T06:11:35.509Z,8.73
2023-02-19T06:14:02.153Z,8.66
2023-02-19T06:16:28.955Z,8.60
2023-02-19T06:18:55.488Z,8.55
2023-02-19T06:21:21.989Z,8.50
2023-02-19T06:23:48.475Z,8.47
2023-02-19T06:26:21.088Z,8.39
2023-02-19T06:28:49.680Z,8.36
2023-02-19T06:31:17.325Z,8.34
2023-02-19T06:33:44.534Z,8.30
2023-02-19T06:36:17.372Z,8.26
2023-02-19T06:38:44.393Z,8.23
2023-02-19T06:41:12.299Z,8.21
2023-02-19T06:43:39.028Z,8.19
2023-02-19T06:46:06.627Z,8.16
2023-02-19T06:48:34.349Z,8.15
2023-02-19T06:51:01.182Z,8.14
2023-02-19T06:53:27.665Z,8.12
2023-02-19T06:56:31.554Z,8.09
2023-02-19T06:59:00.570Z,8.09
2023-02-19T07:01:28.587Z,8.08
2023-02-19T07:03:55.105Z,8.07
2023-02-19T07:06:23.179Z,8.04
2023-02-19T07:08:50.330Z,8.02
2023-02-19T07:11:17.731Z,8.01
2023-02-19T07:13:44.970Z,7.98
2023-02-19T07:16:13.050Z,7.99
2023-02-19T07:18:40.633Z,7.98
2023-02-19T07:21:12.589Z,7.93
2023-02-19T07:23:40.575Z,7.94
2023-02-19T07:26:16.051Z,7.92
2023-02-19T07:28:44.241Z,7.93
2023-02-19T07:31:12.227Z,7.93
2023-02-19T07:33:39.073Z,7.94
2023-02-19T07:36:08.734Z,7.92
2023-02-19T07:38:37.794Z,7.92
2023-02-19T07:41:05.853Z,7.91
2023-02-19T07:43:34.826Z,7.92
2023-02-19T07:46:08.893Z,7.92
2023-02-19T07:48:43.839Z,7.92
2023-02-19T07:51:22.564Z,7.93
2023-02-19T07:54:09.212Z,7.94
2023-02-19T07:56:55.904Z,7.94
2023-02-19T07:59:42.397Z,7.94
2023-02-19T08:02:28.923Z,7.96
2023-02-19T08:05:15.482Z,7.95
2023-02-19T08:08:02.542Z,7.95
2023-02-19T08:10:49.021Z,7.94
2023-02-19T08:13:17.700Z,7.93
2023-02-19T08:15:44.472Z,7.91
2023-02-19T08:18:11.494Z,7.92
2023-02-19T08:20:38.407Z,7.94
2023-02-19T08:23:05.318Z,7.98
2023-02-19T08:25:32.225Z,8.00
2023-02-19T08:28:00.097Z,8.06
2023-02-19T08:30:28.319Z,8.10
2023-02-19T08:32:56.000Z,8.15
2023-02-19T08:35:22.660Z,8.20
2023-02-19T08:37:49.418Z,8.26
2023-02-19T08:40:16.457Z,8.31
2023-02-19T08:42:43.281Z,8.37
2023-02-19T08:45:09.945Z,8.41
2023-02-19T08:47:36.879Z,8.46
2023-02-19T08:50:05.409Z,8.50
2023-02-19T08:52:32.355Z,8.53
2023-02-19T08:54:59.059Z,8.56
2023-02-19T08:57:26.628Z,8.62
2023-02-19T08:59:53.528Z,8.71
2023-02-19T09:02:20.281Z,8.82
2023-02-19T09:04:46.934Z,8.97
2023-02-19T09:07:13.473Z,9.13
2023-02-19T09:09:40.518Z,9.32
2023-02-19T09:12:08.601Z,9.59
2023-02-19T09:14:35.845Z,9.92
2023-02-19T09:17:04.212Z,10.25
2023-02-19T09:19:32.494Z,10.58
2023-02-19T09:21:59.204Z,10.90
2023-02-19T09:24:26.215Z,11.19
2023-02-19T09:26:54.509Z,11.48
2023-02-19T09:29:24.224Z,11.80
2023-02-19T09:31:50.921Z,12.06
2023-02-19T09:34:17.446Z,12.30
2023-02-19T09:36:43.942Z,12.52
2023-02-19T09:39:10.402Z,12.74
2023-02-19T09:41:45.464Z,12.99
2023-02-19T09:44:17.636Z,13.18
2023-02-19T09:46:47.321Z,13.35
2023-02-19T09:49:31.838Z,13.66
2023-02-19T09:52:03.255Z,13.90
2023-02-19T09:54:31.171Z,14.12
2023-02-19T09:57:01.108Z,14.37
2023-02-19T09:59:41.797Z,14.69
2023-02-19T10:02:17.545Z,14.97
2023-02-19T10:04:45.841Z,15.12
2023-02-19T10:07:18.288Z,15.34
2023-02-19T10:09:53.468Z,15.53
2023-02-19T10:12:29.099Z,15.69
2023-02-19T10:15:05.312Z,15.73
2023-02-19T10:17:32.901Z,15.80
2023-02-19T10:19:59.374Z,15.87
2023-02-19T10:22:25.996Z,16.03
2023-02-19T10:24:55.421Z,16.12
2023-02-19T10:27:22.329Z,16.14
2023-02-19T10:29:49.969Z,16.13
2023-02-19T10:32:22.290Z,16.15
2023-02-19T10:35:09.216Z,16.14
2023-02-19T10:37:43.053Z,16.12
2023-02-19T10:40:18.763Z,15.89
2023-02-19T10:42:55.982Z,15.74
2023-02-19T10:45:33.900Z,15.58
2023-02-19T10:48:01.212Z,15.44
2023-02-19T10:50:31.944Z,15.16
2023-02-19T10:53:00.666Z,14.87
2023-02-19T10:55:33.358Z,14.70
2023-02-19T10:58:23.991Z,14.64
2023-02-19T11:01:12.090Z,14.48
2023-02-19T11:03:38.938Z,14.26
2023-02-19T11:06:08.655Z,14.08
2023-02-19T11:08:49.506Z,13.88
2023-02-19T11:11:26.977Z,13.69
2023-02-19T11:13:56.773Z,13.50
2023-02-19T11:16:36.542Z,13.39
2023-02-19T11:19:03.227Z,13.18
2023-02-19T11:21:30.891Z,13.07
2023-02-19T11:23:57.493Z,12.98
2023-02-19T11:26:26.621Z,12.97
2023-02-19T11:29:00.916Z,12.95
2023-02-19T11:31:32.464Z,12.94
2023-02-19T11:34:22.474Z,12.85
2023-02-19T11:37:08.323Z,12.71
2023-02-19T11:39:35.114Z,12.67
2023-02-19T11:42:21.789Z,12.62
2023-02-19T11:45:17.221Z,12.61
2023-02-19T11:48:11.774Z,12.60
2023-02-19T11:50:47.661Z,12.50
2023-02-19T11:53:26.854Z,12.59
2023-02-19T11:56:05.673Z,12.66
2023-02-19T11:59:04.388Z,12.73
2023-02-19T12:02:08.570Z,12.77
2023-02-19T12:05:03.120Z,12.76
2023-02-19T12:07:50.815Z,12.80
2023-02-19T12:10:33.898Z,12.90
2023-02-19T12:13:13.398Z,13.07
2023-02-19T12:15:46.005Z,13.09
2023-02-19T12:18:27.839Z,13.09
2023-02-19T12:21:10.947Z,13.11
2023-02-19T12:23:58.962Z,13.17
2023-02-19T12:26:50.371Z,13.21
2023-02-19T12:29:44.261Z,13.38
2023-02-19T12:32:20.886Z,13.50
2023-02-19T12:35:26.993Z,13.66
2023-02-19T12:37:56.452Z,13.83
2023-02-19T12:41:10.532Z,13.97
2023-02-19T12:43:42.619Z,14.11
2023-02-19T12:46:25.867Z,14.23
2023-02-19T12:48:58.261Z,14.31
2023-02-19T12:51:48.489Z,14.34
2023-02-19T12:54:24.979Z,14.39
2023-02-19T12:57:10.414Z,14.46
2023-02-19T13:00:00.013Z,14.55
2023-02-19T13:02:53.738Z,14.49
2023-02-19T13:05:25.358Z,14.39
2023-02-19T13:08:04.815Z,14.46
2023-02-19T13:10:50.444Z,14.49
2023-02-19T13:13:31.709Z,14.56
2023-02-19T13:16:05.846Z,14.62
2023-02-19T13:18:41.591Z,14.68
2023-02-19T13:21:08.933Z,14.75
2023-02-19T13:23:42.950Z,14.78
2023-02-19T13:26:21.898Z,14.82
2023-02-19T13:28:57.633Z,14.76
2023-02-19T13:31:55.583Z,14.59
2023-02-19T13:34:28.890Z,14.57
2023-02-19T13:36:56.360Z,14.59
2023-02-19T13:39:23.392Z,14.64
2023-02-19T13:41:52.932Z,14.65
2023-02-19T13:44:28.042Z,14.73
2023-02-19T13:46:54.657Z,14.82
2023-02-19T13:49:27.313Z,14.83
2023-02-19T13:52:24.217Z,14.77
2023-02-19T13:54:50.782Z,14.85
2023-02-19T13:57:23.513Z,14.89
2023-02-19T13:59:51.592Z,14.96
2023-02-19T14:02:21.251Z,15.11
2023-02-19T14:04:53.977Z,15.26
2023-02-19T14:07:32.564Z,15.42
2023-02-19T14:09:59.231Z,15.60
2023-02-19T14:12:37.128Z,15.77
2023-02-19T14:15:49.505Z,15.90
2023-02-19T14:18:42.407Z,16.13
2023-02-19T14:21:23.962Z,16.30
2023-02-19T14:23:53.494Z,16.48
2023-02-19T14:26:20.977Z,16.58
2023-02-19T14:28:49.282Z,16.69
2023-02-19T14:31:22.211Z,16.90
2023-02-19T14:33:57.875Z,17.15
2023-02-19T14:36:39.628Z,17.36
2023-02-19T14:39:11.971Z,17.53
2023-02-19T14:41:42.062Z,17.63
2023-02-19T14:44:17.688Z,17.73
2023-02-19T14:46:55.191Z,17.68
2023-02-19T14:49:27.489Z,17.50
2023-02-19T14:52:02.972Z,17.23
2023-02-19T14:54:48.653Z,17.01
2023-02-19T14:57:20.898Z,16.83
2023-02-19T15:00:01.833Z,16.71
2023-02-19T15:02:30.945Z,16.69
2023-02-19T15:04:58.105Z,16.68
2023-02-19T15:07:28.851Z,16.61
2023-02-19T15:10:00.888Z,16.75
2023-02-19T15:12:32.833Z,16.89
2023-02-19T15:15:02.648Z,17.01
2023-02-19T15:17:32.295Z,17.14
2023-02-19T15:20:04.786Z,17.24
2023-02-19T15:22:32.564Z,17.31
2023-02-19T15:25:03.580Z,17.32
2023-02-19T15:27:30.480Z,17.39
2023-02-19T15:29:56.915Z,17.43
2023-02-19T15:32:25.926Z,17.46
2023-02-19T15:35:00.817Z,17.39
2023-02-19T15:37:33.627Z,17.24
2023-02-19T15:40:06.009Z,17.09
2023-02-19T15:42:35.242Z,17.00
2023-02-19T15:45:16.755Z,16.95
2023-02-19T15:47:50.535Z,16.79
2023-02-19T15:50:25.770Z,16.55
2023-02-19T15:53:27.673Z,16.30
2023-02-19T15:56:03.038Z,16.09
2023-02-19T15:58:36.132Z,15.92
2023-02-19T16:01:07.165Z,15.77
2023-02-19T16:03:35.272Z,15.64
2023-02-19T16:06:16.015Z,15.49
2023-02-19T16:08:45.046Z,15.35
2023-02-19T16:11:23.758Z,15.13
2023-02-19T16:13:51.567Z,14.92
2023-02-19T16:16:35.287Z,14.72
2023-02-19T16:19:02.106Z,14.57
2023-02-19T16:21:28.902Z,14.44
2023-02-19T16:24:07.106Z,14.29
2023-02-19T16:26:44.553Z,14.18
2023-02-19T16:29:23.034Z,14.04
2023-02-19T16:31:51.922Z,14.01
2023-02-19T16:34:28.396Z,13.85
2023-02-19T16:36:54.876Z,13.84
2023-02-19T16:39:21.823Z,13.79
2023-02-19T16:41:48.269Z,13.72
2023-02-19T16:44:20.462Z,13.66
2023-02-19T16:46:51.813Z,13.60
2023-02-19T16:49:18.691Z,13.51
2023-02-19T16:51:46.242Z,13.45
2023-02-19T16:54:12.921Z,13.42
2023-02-19T16:56:39.806Z,13.39
2023-02-19T16:59:06.379Z,13.33
2023-02-19T17:01:34.033Z,13.28
2023-02-19T17:04:04.663Z,13.17
2023-02-19T17:06:31.258Z,13.18
2023-02-19T17:08:57.710Z,13.11
2023-02-19T17:11:24.385Z,13.02
2023-02-19T17:13:51.059Z,12.95
2023-02-19T17:16:20.712Z,12.83
2023-02-19T17:18:47.323Z,12.79
2023-02-19T17:21:17.703Z,12.71
2023-02-19T17:23:44.244Z,12.64
2023-02-19T17:26:15.602Z,12.55
2023-02-19T17:28:42.460Z,12.50
2023-02-19T17:31:11.109Z,12.41
2023-02-19T17:33:38.613Z,12.34
2023-02-19T17:36:05.974Z,12.28
2023-02-19T17:38:32.468Z,12.22
2023-02-19T17:40:59.196Z,12.15
2023-02-19T17:43:25.654Z,12.09
2023-02-19T17:45:52.183Z,12.03
2023-02-19T17:48:18.649Z,11.96
2023-02-19T17:50:45.111Z,11.88
2023-02-19T17:53:11.592Z,11.83
2023-02-19T17:55:38.058Z,11.75
2023-02-19T17:58:04.547Z,11.68
2023-02-19T18:00:31.127Z,11.60
2023-02-19T18:02:57.773Z,11.54
2023-02-19T18:05:24.363Z,11.47
2023-02-19T18:07:51.001Z,11.41
2023-02-19T18:10:19.385Z,11.35
2023-02-19T18:12:45.968Z,11.29
2023-02-19T18:15:21.676Z,11.23
2023-02-19T18:17:48.168Z,11.19
2023-02-19T18:20:17.011Z,11.09
2023-02-19T18:22:43.541Z,11.09
2023-02-19T18:25:10.897Z,11.04
2023-02-19T18:27:37.453Z,10.99
2023-02-19T18:30:05.292Z,10.92
2023-02-19T18:32:31.960Z,10.90
2023-02-19T18:34:59.147Z,10.86
2023-02-19T18:37:26.752Z,10.84
2023-02-19T18:39:53.681Z,10.79
2023-02-19T18:42:21.498Z,10.74
2023-02-19T18:44:49.171Z,10.71
2023-02-19T18:47:17.263Z,10.66
2023-02-19T18:49:47.433Z,10.63
2023-02-19T18:52:14.519Z,10.60
2023-02-19T18:54:41.005Z,10.58
2023-02-19T18:57:07.485Z,10.55
2023-02-19T18:59:34.068Z,10.52
2023-02-19T19:02:00.679Z,10.48
2023-02-19T19:04:27.200Z,10.45
2023-02-19T19:06:53.751Z,10.42
2023-02-19T19:09:20.170Z,10.39
2023-02-19T19:11:46.648Z,10.33
2023-02-19T19:14:13.943Z,10.29
2023-02-19T19:16:40.482Z,10.25
2023-02-19T19:19:06.956Z,10.23
2023-02-19T19:21:33.602Z,10.18
2023-02-19T19:24:00.078Z,10.13
2023-02-19T19:26:26.695Z,10.09
2023-02-19T19:28:53.300Z,10.06
2023-02-19T19:31:20.990Z,10.03
2023-02-19T19:33:48.733Z,10.02
2023-02-19T19:36:19.897Z,9.98
2023-02-19T19:38:47.108Z,10.00
2023-02-19T19:41:15.211Z,9.98
2023-02-19T19:43:41.802Z,9.99
2023-02-19T19:46:08.474Z,9.96
2023-02-19T19:48:35.022Z,9.93
2023-02-19T19:51:01.512Z,9.92
2023-02-19T19:53:27.993Z,9.86
2023-02-19T19:55:54.505Z,9.86
2023-02-19T19:58:20.995Z,9.83
2023-02-19T20:00:47.477Z,9.80
2023-02-19T20:03:13.966Z,9.78
2023-02-19T20:05:40.476Z,9.73
2023-02-19T20:08:06.937Z,9.67
2023-02-19T20:10:33.460Z,9.64
2023-02-19T20:12:59.942Z,9.59
2023-02-19T20:15:26.503Z,9.55
2023-02-19T20:17:52.996Z,9.51
2023-02-19T20:20:20.818Z,9.46
2023-02-19T20:22:47.316Z,9.43
2023-02-19T20:25:13.784Z,9.38
2023-02-19T20:27:40.278Z,9.33
2023-02-19T20:30:09.779Z,9.28
2023-02-19T20:32:37.718Z,9.23
2023-02-19T20:35:04.382Z,9.18
2023-02-19T20:37:30.911Z,9.15
2023-02-19T20:39:57.406Z,9.11
2023-02-19T20:42:23.977Z,9.06
2023-02-19T20:44:50.511Z,8.99
2023-02-19T20:47:17.087Z,8.94
2023-02-19T20:49:45.380Z,8.90
2023-02-19T20:52:15.198Z,8.86
2023-02-19T20:54:41.850Z,8.82
2023-02-19T20:57:09.128Z,8.78
2023-02-19T20:59:35.966Z,8.75
2023-02-19T21:02:04.272Z,8.68
2023-02-19T21:04:31.274Z,8.64
2023-02-19T21:06:57.897Z,8.58
2023-02-19T21:09:24.384Z,8.54
2023-02-19T21:11:51.445Z,8.49
2023-02-19T21:14:18.024Z,8.43
2023-02-19T21:16:44.918Z,8.39
2023-02-19T21:19:11.663Z,8.32
2023-02-19T21:21:38.209Z,8.27
2023-02-19T21:24:04.794Z,8.24
2023-02-19T21:26:39.311Z,8.14
2023-02-19T21:29:07.372Z,8.16
2023-02-19T21:31:44.064Z,8.11
2023-02-19T21:34:12.644Z,8.07
2023-02-19T21:36:39.447Z,8.04
2023-02-19T21:39:07.751Z,8.00
2023-02-19T21:41:34.420Z,7.97
2023-02-19T21:44:01.036Z,7.93
2023-02-19T21:46:27.650Z,7.91
2023-02-19T21:48:56.037Z,7.87
2023-02-19T21:51:29.459Z,7.83
2023-02-19T21:53:56.022Z,7.80
2023-02-19T21:56:31.151Z,7.70
2023-02-19T21:58:57.965Z,7.71
2023-02-19T22:01:29.546Z,7.67
2023-02-19T22:03:55.949Z,7.63
2023-02-19T22:06:29.013Z,7.60
2023-02-19T22:08:56.353Z,7.55
2023-02-19T22:11:22.851Z,7.51
2023-02-19T22:13:49.721Z,7.47
2023-02-19T22:16:17.385Z,7.42
2023-02-19T22:18:52.987Z,7.39
2023-02-19T22:21:20.732Z,7.36
2023-02-19T22:23:48.276Z,7.31
2023-02-19T22:26:24.317Z,7.27
2023-02-19T22:28:51.563Z,7.23
2023-02-19T22:31:20.194Z,7.20
2023-02-19T22:33:46.758Z,7.17
2023-02-19T22:36:17.723Z,7.07
2023-02-19T22:38:44.552Z,7.10
2023-02-19T22:41:11.584Z,7.07
2023-02-19T22:43:38.788Z,7.02
2023-02-19T22:46:10.318Z,6.97
2023-02-19T22:48:36.851Z,6.96
2023-02-19T22:51:03.510Z,6.93
2023-02-19T22:53:30.034Z,6.91
2023-02-19T22:55:56.515Z,6.87
2023-02-19T22:58:23.015Z,6.83
2023-02-19T23:00:49.490Z,6.80
2023-02-19T23:03:16.022Z,6.79
2023-02-19T23:05:42.567Z,6.76
2023-02-19T23:08:09.025Z,6.75
2023-02-19T23:10:35.486Z,6.71
2023-02-19T23:13:02.014Z,6.70
2023-02-19T23:15:28.504Z,6.68
2023-02-19T23:17:55.030Z,6.67
2023-02-19T23:20:21.487Z,6.64
2023-02-19T23:22:47.993Z,6.64
2023-02-19T23:25:14.486Z,6.63
2023-02-19T23:27:41.250Z,6.62
2023-02-19T23:30:08.387Z,6.60
2023-02-19T23:32:35.002Z,6.58
2023-02-19T23:35:01.493Z,6.57
2023-02-19T23:37:27.980Z,6.58
2023-02-19T23:39:54.430Z,6.57
2023-02-19T23:42:20.891Z,6.55
2023-02-19T23:44:47.421Z,6.55
2023-02-19T23:47:14.174Z,6.54
2023-02-19T23:49:40.992Z,6.54
2023-02-19T23:52:07.761Z,6.54
2023-02-19T23:54:34.258Z,6.54
2023-02-19T23:57:00.774Z,6.55
2023-02-19T23:59:27.249Z,6.56
